Time;durP1;ratioP1;P1;durP2;ratioP2;P2;SDS_P1;SDS_P2;PMS_P1;PMS_P2;Temp;Humidity;BMP_temperature;BMP_pressure;BME280_temperature;BME280_humidity;BME280_pressure;Samples;Min_cycle;Max_cycle;Signal;HPM_P1;HPM_P2
2023/03/17 00:02:24;;;;;;;5.25;3.30;;;3.00;99.90;;;;;;4968579;28;20234;-73
2023/03/17 00:04:51;;;;;;;3.30;2.47;;;3.00;99.90;;;;;;4968177;28;20256;-73
2023/03/17 00:07:18;;;;;;;3.40;2.70;;;3.00;99.90;;;;;;4969430;28;20208;-74
2023/03/17 00:09:45;;;;;;;4.53;2.80;;;3.00;99.90;;;;;;4969936;28;20687;-73
2023/03/17 00:12:12;;;;;;;4.80;2.55;;;3.00;99.90;;;;;;4972439;28;20208;-73
2023/03/17 00:14:40;;;;;;;3.08;2.78;;;3.00;99.90;;;;;;4969980;28;20231;-72
2023/03/17 00:17:11;;;;;;;4.18;2.70;;;3.00;99.90;;;;;;4972092;28;20275;-73
2023/03/17 00:19:38;;;;;;;2.67;2.47;;;2.90;99.90;;;;;;4989682;28;20200;-74
2023/03/17 00:22:14;;;;;;;3.20;2.90;;;2.90;99.90;;;;;;4991672;28;20295;-72
2023/03/17 00:24:41;;;;;;;3.08;2.60;;;3.00;99.90;;;;;;4991234;28;20249;-75
2023/03/17 00:27:12;;;;;;;3.10;2.72;;;2.90;99.90;;;;;;4980189;28;20203;-73
2023/03/17 00:29:39;;;;;;;4.18;2.92;;;2.90;99.90;;;;;;4971662;28;20707;-73
2023/03/17 00:32:10;;;;;;;2.95;2.65;;;2.90;99.90;;;;;;4972578;28;20287;-73
2023/03/17 00:34:37;;;;;;;2.25;2.05;;;3.00;99.90;;;;;;4971905;28;20278;-73
2023/03/17 00:37:03;;;;;;;2.35;2.15;;;3.00;99.90;;;;;;4971922;28;20199;-75
2023/03/17 00:39:30;;;;;;;3.95;2.90;;;3.00;99.90;;;;;;4972430;28;20295;-73
2023/03/17 00:41:57;;;;;;;2.67;2.38;;;3.00;99.90;;;;;;4967240;28;20215;-72
2023/03/17 00:44:24;;;;;;;2.72;2.20;;;3.00;99.90;;;;;;4990615;28;20226;-75
2023/03/17 00:46:51;;;;;;;3.13;2.50;;;3.10;99.90;;;;;;4990516;28;20202;-73
2023/03/17 00:49:22;;;;;;;3.05;2.75;;;3.10;99.90;;;;;;5022361;22;20226;-92
2023/03/17 00:51:50;;;;;;;3.05;2.80;;;3.10;99.90;;;;;;5004614;28;20215;-92
2023/03/17 00:54:18;;;;;;;3.15;2.65;;;3.10;99.90;;;;;;5018871;23;20225;-74
2023/03/17 00:56:46;;;;;;;2.55;1.90;;;3.10;99.90;;;;;;5029738;28;20198;-74
2023/03/17 00:59:20;;;;;;;2.90;2.30;;;3.10;99.90;;;;;;5030217;28;20244;-74
2023/03/17 01:01:47;;;;;;;3.97;2.83;;;3.10;99.90;;;;;;5030181;28;20610;-74
2023/03/17 01:04:14;;;;;;;2.85;2.55;;;3.20;99.90;;;;;;5019793;28;20218;-74
2023/03/17 01:06:43;;;;;;;3.10;2.80;;;3.20;99.90;;;;;;5010110;28;20233;-74
2023/03/17 01:09:13;;;;;;;3.40;2.40;;;3.20;99.90;;;;;;5010320;28;20218;-74
2023/03/17 01:11:40;;;;;;;3.35;2.67;;;3.20;99.90;;;;;;5010127;28;20195;-74
2023/03/17 01:14:08;;;;;;;3.20;2.90;;;3.20;99.90;;;;;;5009831;28;20226;-73
2023/03/17 01:16:35;;;;;;;2.55;2.15;;;3.20;99.90;;;;;;5010106;28;20206;-74
2023/03/17 01:19:01;;;;;;;3.65;2.15;;;3.30;99.90;;;;;;5010558;28;20579;-73
2023/03/17 01:21:28;;;;;;;2.92;2.10;;;3.30;99.90;;;;;;5002920;28;20195;-73
2023/03/17 01:23:56;;;;;;;3.55;2.30;;;3.30;99.90;;;;;;5001321;28;20219;-73
2023/03/17 01:26:23;;;;;;;5.32;2.40;;;3.30;99.90;;;;;;5009525;28;20212;-75
2023/03/17 01:28:50;;;;;;;2.55;2.22;;;3.30;99.90;;;;;;5009974;28;20229;-74
2023/03/17 01:31:17;;;;;;;2.80;2.50;;;3.30;99.90;;;;;;5010006;28;20205;-74
2023/03/17 01:33:44;;;;;;;2.83;2.40;;;3.30;99.90;;;;;;5009742;28;20218;-74
2023/03/17 01:36:11;;;;;;;4.20;2.67;;;3.30;99.90;;;;;;5009588;28;20644;-73
2023/03/17 01:38:37;;;;;;;2.83;2.45;;;3.30;99.90;;;;;;5009955;28;20198;-74
2023/03/17 01:41:06;;;;;;;2.60;2.28;;;3.40;99.90;;;;;;5010029;28;20205;-74
2023/03/17 01:43:33;;;;;;;5.03;2.70;;;3.40;99.90;;;;;;5009894;28;20586;-74
2023/03/17 01:46:26;;;;;;;2.38;2.17;;;3.40;99.90;;;;;;5009494;28;20202;-74
2023/03/17 01:49:13;;;;;;;2.42;2.22;;;3.40;99.90;;;;;;5009766;28;20210;-74
2023/03/17 01:51:51;;;;;;;3.55;2.00;;;3.50;99.90;;;;;;5009885;28;20682;-73
2023/03/17 01:54:22;;;;;;;3.72;2.90;;;3.50;99.90;;;;;;5009029;28;20226;-73
2023/03/17 01:56:54;;;;;;;2.45;2.10;;;3.50;99.90;;;;;;5001635;28;20233;-74
2023/03/17 01:59:26;;;;;;;3.22;2.38;;;3.50;99.90;;;;;;5008881;28;20695;-74
2023/03/17 02:01:57;;;;;;;3.28;2.33;;;3.50;99.90;;;;;;5008712;28;20623;-73
2023/03/17 02:04:25;;;;;;;3.00;2.70;;;3.50;99.90;;;;;;5002249;28;20219;-73
2023/03/17 02:06:52;;;;;;;2.60;2.25;;;3.50;99.90;;;;;;5000068;28;20202;-74
2023/03/17 02:09:19;;;;;;;2.88;2.30;;;3.40;99.90;;;;;;5009559;28;20218;-74
2023/03/17 02:11:46;;;;;;;2.70;2.50;;;3.40;99.90;;;;;;5009459;28;20210;-74
2023/03/17 02:14:14;;;;;;;3.95;2.88;;;3.40;99.90;;;;;;5009277;28;20230;-74
2023/03/17 02:16:40;;;;;;;4.70;2.50;;;3.40;99.90;;;;;;5009261;28;20202;-74
2023/03/17 02:19:08;;;;;;;2.33;2.05;;;3.40;99.90;;;;;;4997539;28;20572;-73
2023/03/17 02:21:41;;;;;;;2.35;2.00;;;3.30;99.90;;;;;;4990095;28;20199;-74
2023/03/17 02:24:16;;;;;;;2.20;2.00;;;3.30;99.90;;;;;;4990426;28;20211;-73
2023/03/17 02:26:45;;;;;;;2.33;2.13;;;3.30;99.90;;;;;;4994221;28;20608;-74
2023/03/17 02:29:12;;;;;;;2.83;2.53;;;3.30;99.90;;;;;;5013388;28;20254;-73
2023/03/17 02:31:39;;;;;;;3.28;2.53;;;3.20;99.90;;;;;;5005421;28;20222;-74
2023/03/17 02:34:06;;;;;;;3.22;2.40;;;3.20;99.90;;;;;;4997561;28;20586;-73
2023/03/17 02:36:33;;;;;;;3.78;2.47;;;3.20;99.90;;;;;;5013149;28;20199;-74
2023/03/17 02:39:01;;;;;;;3.10;2.65;;;3.20;99.90;;;;;;5013257;28;20209;-73
2023/03/17 02:41:28;;;;;;;3.25;2.47;;;3.20;99.90;;;;;;5013246;28;20203;-73
2023/03/17 02:43:55;;;;;;;2.47;2.28;;;3.20;99.90;;;;;;5012750;28;20222;-73
2023/03/17 02:46:22;;;;;;;2.30;2.10;;;3.20;99.90;;;;;;5007047;28;20204;-74
2023/03/17 02:48:49;;;;;;;2.10;1.90;;;3.20;99.90;;;;;;4993361;28;20214;-74
2023/03/17 02:51:16;;;;;;;5.72;2.40;;;3.20;99.90;;;;;;4993196;28;20222;-73
2023/03/17 02:53:43;;;;;;;2.10;1.90;;;3.30;99.90;;;;;;4993129;28;20507;-75
2023/03/17 02:56:11;;;;;;;3.22;1.98;;;3.30;99.90;;;;;;4996929;28;20199;-74
2023/03/17 02:58:38;;;;;;;4.10;2.45;;;3.30;99.90;;;;;;4993882;28;20207;-74
2023/03/17 03:01:05;;;;;;;3.90;2.67;;;3.40;99.90;;;;;;4993544;28;20199;-74
2023/03/17 03:03:31;;;;;;;2.63;2.35;;;3.30;99.90;;;;;;4993391;28;20226;-72
2023/03/17 03:05:58;;;;;;;3.03;2.80;;;3.40;99.90;;;;;;5003570;28;20268;-73
2023/03/17 03:08:26;;;;;;;4.35;2.83;;;3.40;99.90;;;;;;5012950;28;20213;-74
2023/03/17 03:10:53;;;;;;;4.63;2.72;;;3.40;99.90;;;;;;5012695;28;20277;-74
2023/03/17 03:13:22;;;;;;;4.43;2.30;;;3.40;99.90;;;;;;5012776;28;20235;-73
2023/03/17 03:15:48;;;;;;;3.25;2.95;;;3.40;99.90;;;;;;5012334;28;20198;-73
2023/03/17 03:18:15;;;;;;;3.90;2.90;;;3.40;99.90;;;;;;5012766;28;20205;-74
2023/03/17 03:20:43;;;;;;;4.70;3.53;;;3.40;99.90;;;;;;5012661;28;20202;-73
2023/03/17 03:23:10;;;;;;;3.08;2.70;;;3.30;99.90;;;;;;5012482;28;20253;-74
2023/03/17 03:25:37;;;;;;;2.80;2.40;;;3.30;99.90;;;;;;5012373;28;20205;-74
2023/03/17 03:28:05;;;;;;;4.93;2.80;;;3.30;99.90;;;;;;5012461;28;20209;-73
2023/03/17 03:30:33;;;;;;;3.65;2.70;;;3.30;99.90;;;;;;5012454;28;20690;-73
2023/03/17 03:33:00;;;;;;;2.88;2.20;;;3.30;99.90;;;;;;5012203;28;20229;-74
2023/03/17 03:35:28;;;;;;;3.00;2.70;;;3.40;99.90;;;;;;5011981;28;20226;-74
2023/03/17 03:37:55;;;;;;;4.28;2.53;;;3.40;99.90;;;;;;5012408;28;20253;-73
2023/03/17 03:40:22;;;;;;;5.40;2.55;;;3.30;99.90;;;;;;5012361;28;20194;-73
2023/03/17 03:42:49;;;;;;;3.17;2.70;;;3.30;99.90;;;;;;5012666;28;20213;-74
2023/03/17 03:45:16;;;;;;;2.88;2.65;;;3.20;99.90;;;;;;5012196;28;20752;-73
2023/03/17 03:47:44;;;;;;;2.85;2.55;;;3.20;99.90;;;;;;5012187;28;20639;-72
2023/03/17 03:50:12;;;;;;;2.53;2.30;;;3.10;99.90;;;;;;5012150;28;20221;-72
2023/03/17 03:52:39;;;;;;;3.00;2.42;;;3.10;99.90;;;;;;5012348;28;20567;-72
2023/03/17 03:55:06;;;;;;;2.60;2.40;;;3.00;99.90;;;;;;5011529;28;20229;-72
2023/03/17 03:57:33;;;;;;;4.30;2.60;;;3.00;99.90;;;;;;5011819;28;20654;-72
2023/03/17 04:00:00;;;;;;;2.47;2.28;;;3.00;99.90;;;;;;5011974;28;20202;-73
2023/03/17 04:02:26;;;;;;;3.45;2.38;;;3.00;99.90;;;;;;5011838;28;20202;-73
2023/03/17 04:04:55;;;;;;;2.67;2.05;;;3.00;99.90;;;;;;5011632;28;20435;-73
2023/03/17 04:07:21;;;;;;;2.33;2.13;;;3.00;99.90;;;;;;5011535;28;20586;-72
2023/03/17 04:09:49;;;;;;;2.13;1.92;;;2.90;99.90;;;;;;5011688;28;20316;-73
2023/03/17 04:12:15;;;;;;;3.28;2.58;;;2.90;99.90;;;;;;5012174;28;20646;-73
2023/03/17 04:14:43;;;;;;;2.55;2.10;;;2.90;99.90;;;;;;5011669;28;20222;-73
2023/03/17 04:17:10;;;;;;;3.22;2.30;;;2.90;99.90;;;;;;4995248;28;20202;-73
2023/03/17 04:19:37;;;;;;;2.45;2.25;;;2.90;99.90;;;;;;5012166;28;20198;-73
2023/03/17 04:22:07;;;;;;;3.10;2.30;;;2.80;99.90;;;;;;5012461;28;20209;-73
2023/03/17 04:24:34;;;;;;;5.28;2.17;;;2.80;99.90;;;;;;5011998;28;20222;-73
2023/03/17 04:27:02;;;;;;;5.05;2.90;;;2.70;99.90;;;;;;5011305;28;20560;-73
2023/03/17 04:29:28;;;;;;;2.20;2.00;;;2.70;99.90;;;;;;5009253;28;20213;-73
2023/03/17 04:31:55;;;;;;;3.42;2.45;;;2.60;99.90;;;;;;5009311;28;20209;-73
2023/03/17 04:34:23;;;;;;;2.72;2.50;;;2.70;99.90;;;;;;5007958;28;20278;-73
2023/03/17 04:36:49;;;;;;;2.60;2.40;;;2.60;99.90;;;;;;4999101;28;20242;-74
2023/03/17 04:39:18;;;;;;;3.20;2.70;;;2.60;99.90;;;;;;5000612;28;20198;-73
2023/03/17 04:41:45;;;;;;;3.92;2.70;;;2.60;99.90;;;;;;5001740;28;20206;-75
2023/03/17 04:44:12;;;;;;;3.10;2.67;;;2.60;99.90;;;;;;5000961;28;20222;-73
2023/03/17 04:46:39;;;;;;;3.65;2.97;;;2.60;99.90;;;;;;5000704;28;20204;-74
2023/03/17 04:49:06;;;;;;;4.53;2.70;;;2.50;99.90;;;;;;4998155;28;20211;-74
2023/03/17 04:51:32;;;;;;;2.28;2.08;;;2.50;99.90;;;;;;5001276;28;20848;-73
2023/03/17 04:54:00;;;;;;;3.00;2.25;;;2.50;99.90;;;;;;5001018;28;20222;-74
2023/03/17 04:56:28;;;;;;;3.45;2.70;;;2.60;99.90;;;;;;4995555;28;20207;-74
2023/03/17 04:58:55;;;;;;;2.42;2.20;;;2.50;99.90;;;;;;5008198;28;20202;-73
2023/03/17 05:01:22;;;;;;;3.53;2.47;;;2.50;99.90;;;;;;5001707;28;20967;-74
2023/03/17 05:03:48;;;;;;;2.80;2.50;;;2.40;99.90;;;;;;5000562;28;20237;-73
2023/03/17 05:06:16;;;;;;;2.88;2.60;;;2.30;99.90;;;;;;4999144;28;20203;-74
2023/03/17 05:08:43;;;;;;;2.42;2.17;;;2.30;99.90;;;;;;4999188;28;20203;-73
2023/03/17 05:11:11;;;;;;;3.85;2.25;;;2.20;99.90;;;;;;4997726;28;20265;-74
2023/03/17 05:13:40;;;;;;;3.13;2.70;;;2.20;99.90;;;;;;4999584;28;20222;-73
2023/03/17 05:16:08;;;;;;;14.45;2.72;;;2.10;99.90;;;;;;4997884;28;20215;-72
2023/03/17 05:18:35;;;;;;;3.17;2.35;;;2.10;99.90;;;;;;5004225;28;20574;-74
2023/03/17 05:21:02;;;;;;;5.68;2.08;;;2.00;99.90;;;;;;5007991;28;20470;-74
2023/03/17 05:23:29;;;;;;;2.22;2.05;;;1.90;99.90;;;;;;4995426;28;20219;-74
2023/03/17 05:25:57;;;;;;;2.33;2.00;;;1.90;99.90;;;;;;5000784;28;20253;-73
2023/03/17 05:28:23;;;;;;;2.20;2.00;;;1.90;99.90;;;;;;5008054;28;20202;-73
2023/03/17 05:30:52;;;;;;;3.97;2.42;;;1.80;99.90;;;;;;5005757;28;20218;-73
2023/03/17 05:33:19;;;;;;;2.08;1.98;;;1.80;99.90;;;;;;5007981;28;20195;-73
2023/03/17 05:35:46;;;;;;;3.60;2.05;;;1.80;99.90;;;;;;5009755;28;20566;-73
2023/03/17 05:38:15;;;;;;;2.72;2.05;;;1.80;99.90;;;;;;5001117;28;20209;-72
2023/03/17 05:40:42;;;;;;;3.42;2.25;;;1.80;99.90;;;;;;5010452;28;20285;-73
2023/03/17 05:43:09;;;;;;;2.35;2.15;;;1.80;99.90;;;;;;5009213;28;20268;-73
2023/03/17 05:45:37;;;;;;;5.25;2.15;;;1.70;99.90;;;;;;5009668;28;20199;-73
2023/03/17 05:48:05;;;;;;;4.35;2.05;;;1.80;99.90;;;;;;5010049;28;20202;-72
2023/03/17 05:50:32;;;;;;;2.45;2.13;;;1.70;99.90;;;;;;5009847;28;20245;-72
2023/03/17 05:52:59;;;;;;;2.45;2.20;;;1.80;99.90;;;;;;5000648;28;20223;-72
2023/03/17 05:55:26;;;;;;;3.28;2.38;;;1.80;99.90;;;;;;5010203;28;20717;-73
2023/03/17 05:57:53;;;;;;;2.38;1.92;;;1.80;99.90;;;;;;5008817;28;20674;-73
2023/03/17 06:00:22;;;;;;;6.55;2.65;;;1.90;99.90;;;;;;5011131;28;20209;-72
2023/03/17 06:02:48;;;;;;;2.47;1.70;;;1.90;99.90;;;;;;5014234;28;20228;-74
2023/03/17 06:05:17;;;;;;;2.85;2.60;;;1.90;99.90;;;;;;5005931;28;20226;-72
2023/03/17 06:07:43;;;;;;;4.05;2.45;;;1.90;99.90;;;;;;5013956;28;20198;-72
2023/03/17 06:10:12;;;;;;;2.47;2.17;;;2.00;99.90;;;;;;5013119;28;20207;-72
2023/03/17 06:12:39;;;;;;;2.92;2.05;;;2.00;99.90;;;;;;5013833;28;20202;-72
2023/03/17 06:15:08;;;;;;;3.45;2.53;;;2.00;99.90;;;;;;5013426;28;20222;-72
2023/03/17 06:17:35;;;;;;;2.50;2.00;;;2.00;99.90;;;;;;5013292;28;20234;-72
2023/03/17 06:20:04;;;;;;;2.35;2.15;;;2.10;99.90;;;;;;5013429;28;20662;-72
2023/03/17 06:22:32;;;;;;;1.75;1.65;;;2.10;99.90;;;;;;5013401;28;20210;-72
2023/03/17 06:24:59;;;;;;;2.50;2.17;;;2.20;99.90;;;;;;5005388;28;20255;-72
2023/03/17 06:27:26;;;;;;;4.25;2.63;;;2.30;99.90;;;;;;5013272;28;20252;-73
2023/03/17 06:29:53;;;;;;;2.30;2.10;;;2.40;99.90;;;;;;5012840;28;20842;-72
2023/03/17 06:32:20;;;;;;;2.30;2.10;;;2.40;99.90;;;;;;5013258;28;20214;-69
2023/03/17 06:34:47;;;;;;;2.20;2.00;;;2.50;99.90;;;;;;5006687;28;20222;-66
2023/03/17 06:37:14;;;;;;;2.35;2.13;;;2.50;99.90;;;;;;5012908;28;20218;-68
2023/03/17 06:39:42;;;;;;;6.00;2.72;;;2.60;99.90;;;;;;5013662;28;20355;-67
2023/03/17 06:42:09;;;;;;;5.95;2.40;;;2.60;99.90;;;;;;5013006;28;20218;-69
2023/03/17 06:44:36;;;;;;;2.33;2.13;;;2.80;99.90;;;;;;5005306;28;20214;-70
2023/03/17 06:47:03;;;;;;;2.97;2.30;;;2.90;99.90;;;;;;5002150;28;20207;-71
2023/03/17 06:49:45;;;;;;;2.97;2.13;;;3.00;99.90;;;;;;5075327;22;20219;-91
2023/03/17 06:55:30;;;;;;;4.45;2.42;;;3.40;99.90;;;;;;5111132;28;20195;-89
2023/03/17 06:58:09;;;;;;;3.75;2.40;;;3.60;99.90;;;;;;5109427;28;20195;-90
2023/03/17 07:00:37;;;;;;;3.95;2.58;;;3.90;99.90;;;;;;5121607;22;20271;-73
2023/03/17 07:03:04;;;;;;;4.82;3.00;;;4.20;99.90;;;;;;5054713;28;20212;-73
2023/03/17 07:05:31;;;;;;;3.85;2.75;;;4.60;99.90;;;;;;5032907;28;20666;-73
2023/03/17 07:07:59;;;;;;;2.63;2.40;;;4.90;99.90;;;;;;5033148;28;20208;-75
2023/03/17 07:10:27;;;;;;;1.95;1.77;;;5.40;99.90;;;;;;5032286;28;20236;-73
2023/03/17 07:12:54;;;;;;;2.78;2.00;;;5.90;99.90;;;;;;5032722;28;20212;-73
2023/03/17 07:15:20;;;;;;;2.83;2.20;;;6.40;99.90;;;;;;5044910;28;20217;-74
2023/03/17 07:17:47;;;;;;;2.55;2.08;;;6.90;99.90;;;;;;5053939;28;20242;-75
2023/03/17 07:20:14;;;;;;;2.53;2.00;;;7.40;99.90;;;;;;5045294;28;20205;-72
2023/03/17 07:22:41;;;;;;;2.38;1.85;;;7.70;99.90;;;;;;5052435;28;20563;-74
2023/03/17 07:25:09;;;;;;;2.85;2.00;;;8.10;99.90;;;;;;5043768;28;20232;-73
2023/03/17 07:27:38;;;;;;;1.92;1.52;;;8.30;99.90;;;;;;5040527;28;20654;-73
2023/03/17 07:30:06;;;;;;;2.22;2.03;;;8.50;99.90;;;;;;5040791;28;20563;-72
2023/03/17 07:32:34;;;;;;;2.63;1.90;;;8.80;99.90;;;;;;5051606;28;20220;-75
2023/03/17 07:35:01;;;;;;;2.38;2.05;;;9.10;99.90;;;;;;5051751;28;20255;-75
2023/03/17 07:37:28;;;;;;;2.88;2.00;;;9.40;99.90;;;;;;5051801;28;20205;-77
2023/03/17 07:39:54;;;;;;;2.63;2.10;;;9.80;99.90;;;;;;5052692;28;20578;-75
2023/03/17 07:42:21;;;;;;;4.55;2.25;;;10.10;99.10;;;;;;5048686;28;20281;-74
2023/03/17 07:44:50;;;;;;;2.70;2.20;;;10.30;98.60;;;;;;5039394;28;20607;-75
2023/03/17 07:47:16;;;;;;;2.60;2.20;;;10.50;96.90;;;;;;5048539;28;20289;-75
2023/03/17 07:49:43;;;;;;;3.50;2.08;;;10.60;96.90;;;;;;5032569;28;20209;-76
2023/03/17 07:52:11;;;;;;;2.42;1.75;;;10.80;96.50;;;;;;5033643;28;20237;-77
2023/03/17 07:54:38;;;;;;;2.17;1.60;;;11.20;97.00;;;;;;5034383;28;20249;-76
2023/03/17 07:57:05;;;;;;;2.67;1.83;;;11.50;97.50;;;;;;5032901;28;20696;-77
2023/03/17 07:59:32;;;;;;;3.15;2.15;;;12.10;97.40;;;;;;5046842;28;20589;-76
2023/03/17 08:02:00;;;;;;;4.13;2.80;;;12.70;97.30;;;;;;5051550;28;20201;-77
2023/03/17 08:04:27;;;;;;;2.70;2.30;;;13.30;97.00;;;;;;5038994;28;20488;-75
2023/03/17 08:06:54;;;;;;;1.95;1.75;;;13.60;96.20;;;;;;5033163;28;20201;-75
2023/03/17 08:09:21;;;;;;;2.23;2.03;;;14.10;95.80;;;;;;5043633;28;20299;-72
2023/03/17 08:11:48;;;;;;;2.27;1.90;;;14.50;94.80;;;;;;5048766;28;20483;-73
2023/03/17 08:14:15;;;;;;;2.23;1.60;;;15.00;94.80;;;;;;5043695;28;20498;-73
2023/03/17 08:16:42;;;;;;;2.43;1.80;;;15.20;94.50;;;;;;5050878;28;20470;-73
2023/03/17 08:19:10;;;;;;;2.20;1.83;;;15.50;93.20;;;;;;5050133;28;20455;-75
2023/03/17 08:21:37;;;;;;;3.13;1.60;;;15.80;93.00;;;;;;5042083;28;20460;-75
2023/03/17 08:24:04;;;;;;;1.60;1.50;;;16.20;91.20;;;;;;5048420;28;20486;-75
2023/03/17 08:26:31;;;;;;;1.60;1.50;;;16.20;84.20;;;;;;5050276;28;20463;-75
2023/03/17 08:28:58;;;;;;;1.83;1.50;;;16.30;86.30;;;;;;5050175;28;20458;-75
2023/03/17 08:31:25;;;;;;;2.47;1.70;;;15.80;82.80;;;;;;5050097;28;20856;-76
2023/03/17 08:33:55;;;;;;;2.20;2.00;;;15.70;86.50;;;;;;5033995;28;20515;-76
2023/03/17 08:36:24;;;;;;;1.50;1.40;;;15.70;88.30;;;;;;5048843;28;20503;-75
2023/03/17 08:38:52;;;;;;;1.93;1.70;;;15.90;89.20;;;;;;5043026;28;20472;-76
2023/03/17 08:41:21;;;;;;;2.07;1.50;;;16.60;90.80;;;;;;5037828;28;20465;-74
2023/03/17 08:43:49;;;;;;;1.80;1.40;;;17.40;84.10;;;;;;5036801;28;20506;-76
2023/03/17 08:46:17;;;;;;;1.90;1.60;;;17.90;78.60;;;;;;5048418;28;20468;-75
2023/03/17 08:48:45;;;;;;;2.17;1.60;;;17.90;77.40;;;;;;5049763;28;20475;-75
2023/03/17 08:51:13;;;;;;;2.10;1.50;;;17.60;75.20;;;;;;5049423;28;20994;-75
2023/03/17 08:53:41;;;;;;;1.40;1.30;;;16.80;75.50;;;;;;5050210;28;20483;-75
2023/03/17 08:56:09;;;;;;;1.80;1.50;;;16.60;76.70;;;;;;5049187;28;20911;-76
2023/03/17 08:58:39;;;;;;;1.10;1.00;;;16.80;76.50;;;;;;5050244;28;20467;-75
2023/03/17 09:01:08;;;;;;;1.83;1.57;;;17.50;77.80;;;;;;5050307;28;20471;-74
2023/03/17 09:03:35;;;;;;;1.60;1.33;;;17.90;76.30;;;;;;5051687;28;20545;-73
2023/03/17 09:06:04;;;;;;;1.40;1.20;;;18.90;75.00;;;;;;5050352;28;20467;-71
2023/03/17 09:08:31;;;;;;;1.77;1.53;;;19.00;71.40;;;;;;5049968;28;20916;-74
2023/03/17 09:11:00;;;;;;;1.70;1.50;;;19.80;71.30;;;;;;5041374;28;20468;-71
2023/03/17 09:13:27;;;;;;;2.03;1.33;;;20.60;68.80;;;;;;5041868;28;20499;-72
2023/03/17 09:15:54;;;;;;;1.80;1.37;;;21.50;70.50;;;;;;5051550;28;20463;-72
2023/03/17 09:18:22;;;;;;;1.87;1.50;;;23.10;67.10;;;;;;5054945;28;20475;-73
2023/03/17 09:20:49;;;;;;;1.60;1.40;;;24.00;68.10;;;;;;5058679;28;20474;-74
2023/03/17 09:23:16;;;;;;;1.50;1.40;;;24.70;64.80;;;;;;5043450;28;20464;-75
2023/03/17 09:25:43;;;;;;;1.90;1.60;;;24.80;62.30;;;;;;5050515;28;20451;-74
2023/03/17 09:28:12;;;;;;;1.40;1.30;;;24.20;61.70;;;;;;5046341;28;20474;-74
2023/03/17 09:30:41;;;;;;;1.87;1.50;;;23.80;64.30;;;;;;5031591;28;20862;-75
2023/03/17 09:33:08;;;;;;;2.07;1.40;;;23.30;64.90;;;;;;5048674;28;20994;-73
2023/03/17 09:35:34;;;;;;;1.33;1.00;;;22.40;65.30;;;;;;5048791;28;20470;-74
2023/03/17 09:38:01;;;;;;;1.20;1.00;;;21.00;66.40;;;;;;5049008;28;20468;-74
2023/03/17 09:40:32;;;;;;;1.60;1.40;;;20.40;67.40;;;;;;5048599;28;20479;-75
2023/03/17 09:43:09;;;;;;;1.73;1.30;;;19.60;66.20;;;;;;5041933;28;20460;-77
2023/03/17 09:45:40;;;;;;;1.30;1.20;;;19.40;68.10;;;;;;5041833;28;20958;-76
2023/03/17 09:48:31;;;;;;;1.33;1.20;;;19.60;67.10;;;;;;5048667;28;20470;-77
2023/03/17 09:51:01;;;;;;;1.80;1.57;;;19.20;68.10;;;;;;5049210;28;20472;-76
2023/03/17 09:53:33;;;;;;;1.90;1.43;;;18.90;68.20;;;;;;5047944;28;21024;-73
2023/03/17 09:56:02;;;;;;;2.20;1.70;;;19.20;67.60;;;;;;5048906;28;20466;-75
2023/03/17 09:58:32;;;;;;;1.37;1.27;;;19.00;68.60;;;;;;5030126;28;20468;-75
2023/03/17 10:01:02;;;;;;;1.63;1.53;;;18.80;69.50;;;;;;5038607;28;20823;-72
2023/03/17 10:03:28;;;;;;;1.67;1.37;;;18.80;69.00;;;;;;5049235;28;20994;-72
2023/03/17 10:06:10;;;;;;;1.47;1.37;;;18.60;69.40;;;;;;5041691;28;21004;-75
2023/03/17 10:08:44;;;;;;;2.37;1.43;;;19.20;69.00;;;;;;5041352;28;20471;-73
2023/03/17 10:11:17;;;;;;;1.87;1.40;;;19.40;68.40;;;;;;5048812;28;21166;-75
2023/03/17 10:13:54;;;;;;;1.97;1.40;;;19.80;69.90;;;;;;5048219;28;20482;-75
2023/03/17 10:16:31;;;;;;;1.50;1.40;;;20.10;73.70;;;;;;5048377;28;20546;-76
2023/03/17 10:19:03;;;;;;;1.93;1.30;;;20.40;72.40;;;;;;5048930;28;20463;-75
2023/03/17 10:21:33;;;;;;;1.50;1.30;;;20.70;71.90;;;;;;5048422;28;20460;-73
2023/03/17 10:24:01;;;;;;;2.00;1.20;;;20.90;71.50;;;;;;5048324;28;20511;-74
2023/03/17 10:26:33;;;;;;;1.60;1.20;;;20.90;72.30;;;;;;5047511;28;20530;-76
2023/03/17 10:29:03;;;;;;;1.47;1.37;;;21.00;73.40;;;;;;5049184;28;20471;-76
2023/03/17 10:31:34;;;;;;;2.20;1.50;;;21.40;75.10;;;;;;5048080;28;20471;-75
2023/03/17 10:34:12;;;;;;;1.40;1.30;;;22.10;73.30;;;;;;5049049;28;20514;-76
2023/03/17 10:36:41;;;;;;;1.73;1.33;;;22.20;72.00;;;;;;5044608;28;20530;-74
2023/03/17 10:39:13;;;;;;;3.10;1.20;;;22.10;71.50;;;;;;5036772;28;20463;-73
2023/03/17 10:41:41;;;;;;;2.37;1.33;;;22.70;73.60;;;;;;5049403;28;20470;-74
2023/03/17 10:44:09;;;;;;;1.40;1.07;;;23.50;71.30;;;;;;5048413;28;20484;-75
2023/03/17 10:46:38;;;;;;;1.47;1.20;;;24.40;70.70;;;;;;5050226;28;20544;-75
2023/03/17 10:49:08;;;;;;;2.67;1.27;;;24.90;66.80;;;;;;5053003;28;20513;-75
2023/03/17 10:51:37;;;;;;;2.50;1.43;;;25.30;67.60;;;;;;5051876;28;20467;-76
2023/03/17 10:54:09;;;;;;;1.30;0.97;;;25.90;68.50;;;;;;5052440;28;21041;-75
2023/03/17 10:56:37;;;;;;;1.50;1.10;;;26.40;67.80;;;;;;5052484;28;20466;-74
2023/03/17 10:59:13;;;;;;;1.63;1.30;;;26.40;64.40;;;;;;5052478;28;20458;-76
2023/03/17 11:01:47;;;;;;;1.60;1.30;;;25.80;64.00;;;;;;5039096;28;20551;-74
2023/03/17 11:04:40;;;;;;;1.40;1.30;;;25.10;67.30;;;;;;5041220;28;20475;-76
2023/03/17 11:07:15;;;;;;;1.40;1.30;;;24.00;66.70;;;;;;5038556;28;20495;-75
2023/03/17 11:09:43;;;;;;;1.40;1.30;;;23.50;66.50;;;;;;5052141;28;20474;-73
2023/03/17 11:12:24;;;;;;;1.63;1.30;;;23.20;67.30;;;;;;5054394;28;21024;-75
2023/03/17 11:14:54;;;;;;;1.30;1.20;;;22.60;68.80;;;;;;5047552;28;20499;-75
2023/03/17 11:17:33;;;;;;;1.57;1.40;;;22.30;69.00;;;;;;5052051;28;21010;-76
2023/03/17 11:20:15;;;;;;;2.60;1.83;;;22.20;71.60;;;;;;5053288;28;20463;-74
2023/03/17 11:22:48;;;;;;;2.00;1.80;;;22.30;70.30;;;;;;5051860;28;20463;-75
2023/03/17 11:25:18;;;;;;;2.27;1.93;;;22.20;72.50;;;;;;5051760;28;20566;-74
2023/03/17 11:27:52;;;;;;;2.73;2.20;;;22.30;74.20;;;;;;5051927;28;20491;-75
2023/03/17 11:30:27;;;;;;;2.37;2.10;;;22.40;72.10;;;;;;5050854;28;20542;-75
2023/03/17 11:33:00;;;;;;;2.30;2.10;;;22.30;73.30;;;;;;5051920;28;20494;-75
2023/03/17 11:35:49;;;;;;;2.33;2.07;;;22.30;76.30;;;;;;5051307;28;21001;-75
2023/03/17 11:38:28;;;;;;;3.93;2.00;;;22.60;77.40;;;;;;5051346;28;20459;-75
2023/03/17 11:41:07;;;;;;;2.90;2.53;;;22.90;75.00;;;;;;5051534;28;20543;-74
2023/03/17 11:43:40;;;;;;;2.80;2.40;;;23.10;75.30;;;;;;5051516;28;20483;-74
2023/03/17 11:46:14;;;;;;;2.50;2.20;;;23.20;76.80;;;;;;5051142;28;20838;-75
2023/03/17 11:48:54;;;;;;;3.57;2.37;;;23.50;75.50;;;;;;5051687;28;21005;-75
2023/03/17 11:51:29;;;;;;;2.30;2.00;;;24.40;75.50;;;;;;5051318;28;20462;-73
2023/03/17 11:54:12;;;;;;;2.57;1.93;;;25.40;74.40;;;;;;5050256;28;20485;-75
2023/03/17 11:56:46;;;;;;;7.60;2.83;;;25.70;73.00;;;;;;5051248;28;20548;-75
2023/03/17 11:59:25;;;;;;;2.23;1.80;;;25.50;73.70;;;;;;5050956;28;20483;-74
2023/03/17 12:02:10;;;;;;;2.03;1.90;;;25.50;72.70;;;;;;5051668;28;20467;-75
2023/03/17 12:04:48;;;;;;;2.40;1.80;;;25.60;72.10;;;;;;5050389;28;20550;-75
2023/03/17 12:07:20;;;;;;;4.17;2.10;;;25.80;70.90;;;;;;5039295;28;20467;-75
2023/03/17 12:09:55;;;;;;;2.17;1.80;;;25.20;71.60;;;;;;5051309;28;20460;-75
2023/03/17 12:12:29;;;;;;;2.60;2.17;;;24.60;72.90;;;;;;5050726;28;20483;-75
2023/03/17 12:14:59;;;;;;;2.10;1.90;;;24.00;74.20;;;;;;5051262;28;20894;-75
2023/03/17 12:17:31;;;;;;;1.87;1.77;;;23.80;73.00;;;;;;5050711;28;20541;-74
2023/03/17 12:20:08;;;;;;;2.73;1.83;;;23.60;73.00;;;;;;5051250;28;20887;-74
2023/03/17 12:22:40;;;;;;;2.33;1.70;;;23.50;75.40;;;;;;5050239;28;20489;-75
2023/03/17 12:25:16;;;;;;;2.13;1.60;;;23.60;73.50;;;;;;5050900;28;20486;-75
2023/03/17 12:27:50;;;;;;;1.80;1.70;;;23.90;72.10;;;;;;5047304;28;20459;-76
2023/03/17 12:30:24;;;;;;;2.40;1.80;;;23.70;70.10;;;;;;5050267;28;21337;-73
2023/03/17 12:33:00;;;;;;;2.10;1.70;;;23.40;71.30;;;;;;5045462;28;20487;-75
2023/03/17 12:35:31;;;;;;;2.00;1.77;;;23.30;73.20;;;;;;5048307;28;20463;-75
2023/03/17 12:38:01;;;;;;;2.60;1.67;;;23.00;73.90;;;;;;5045655;28;20465;-73
2023/03/17 12:40:34;;;;;;;1.70;1.50;;;22.70;75.60;;;;;;5031911;28;20457;-73
2023/03/17 12:43:21;;;;;;;1.77;1.67;;;22.30;74.00;;;;;;5031923;28;20456;-73
2023/03/17 12:46:04;;;;;;;2.50;2.00;;;22.00;76.00;;;;;;5031647;28;20948;-74
2023/03/17 12:48:53;;;;;;;2.23;1.67;;;21.90;76.70;;;;;;5037872;28;20464;-74
2023/03/17 12:51:44;;;;;;;3.77;1.80;;;22.10;75.90;;;;;;5031453;28;20471;-73
2023/03/17 12:54:15;;;;;;;2.13;1.67;;;22.20;76.50;;;;;;5030257;28;20579;-74
2023/03/17 12:56:46;;;;;;;4.47;2.23;;;22.20;75.80;;;;;;5031304;28;20524;-73
2023/03/17 12:59:17;;;;;;;2.10;1.80;;;21.90;75.70;;;;;;5040419;28;20463;-74
2023/03/17 13:01:46;;;;;;;2.20;2.00;;;21.80;76.80;;;;;;5050491;28;20974;-75
2023/03/17 13:04:22;;;;;;;6.33;2.07;;;21.60;78.00;;;;;;5050372;28;20507;-75
2023/03/17 13:06:59;;;;;;;1.70;1.33;;;21.40;79.10;;;;;;5050647;28;20969;-73
2023/03/17 13:09:33;;;;;;;1.63;1.53;;;21.30;77.00;;;;;;5049417;28;20459;-74